sensor_id;sensor_type;location;lat;lon;timestamp;temperature;humidity
63371;DHT22;49504;48.336;14.472;2022-08-21T03:01:43;27.20;47.40
63371;DHT22;49504;48.336;14.472;2022-08-21T03:06:48;27.20;47.40
63371;DHT22;49504;48.336;14.472;2022-08-21T03:11:48;27.20;47.40
63371;DHT22;49504;48.336;14.472;2022-08-21T03:16:51;27.10;47.40
63371;DHT22;49504;48.336;14.472;2022-08-21T03:21:52;27.10;47.40
63371;DHT22;49504;48.336;14.472;2022-08-21T03:26:53;27.10;47.50
63371;DHT22;49504;48.336;14.472;2022-08-21T03:31:55;27.10;47.50
63371;DHT22;49504;48.336;14.472;2022-08-21T03:36:56;27.10;47.50
63371;DHT22;49504;48.336;14.472;2022-08-21T03:41:57;27.10;47.60
63371;DHT22;49504;48.336;14.472;2022-08-21T03:47:00;27.10;47.60
63371;DHT22;49504;48.336;14.472;2022-08-21T03:52:02;27.10;47.70
63371;DHT22;49504;48.336;14.472;2022-08-21T03:57:03;27.10;47.70
63371;DHT22;49504;48.336;14.472;2022-08-21T04:02:06;27.10;47.80
63371;DHT22;49504;48.336;14.472;2022-08-21T04:07:08;27.10;47.70
63371;DHT22;49504;48.336;14.472;2022-08-21T04:12:09;27.10;47.80
63371;DHT22;49504;48.336;14.472;2022-08-21T04:17:11;27.10;47.80
63371;DHT22;49504;48.336;14.472;2022-08-21T04:22:12;27.10;47.80
63371;DHT22;49504;48.336;14.472;2022-08-21T04:27:13;27.00;47.70
63371;DHT22;49504;48.336;14.472;2022-08-21T04:32:21;27.00;47.80
63371;DHT22;49504;48.336;14.472;2022-08-21T04:37:23;27.00;47.90
63371;DHT22;49504;48.336;14.472;2022-08-21T04:42:24;27.10;48.10
63371;DHT22;49504;48.336;14.472;2022-08-21T04:47:30;27.00;48.00
63371;DHT22;49504;48.336;14.472;2022-08-21T04:52:33;27.00;47.90
63371;DHT22;49504;48.336;14.472;2022-08-21T04:57:34;27.00;48.00
63371;DHT22;49504;48.336;14.472;2022-08-21T05:02:37;27.00;48.10
63371;DHT22;49504;48.336;14.472;2022-08-21T05:07:39;27.00;48.10
63371;DHT22;49504;48.336;14.472;2022-08-21T05:12:41;27.00;48.10
63371;DHT22;49504;48.336;14.472;2022-08-21T05:17:44;27.00;48.20
63371;DHT22;49504;48.336;14.472;2022-08-21T05:22:45;27.00;48.20
63371;DHT22;49504;48.336;14.472;2022-08-21T05:27:46;27.00;48.30
63371;DHT22;49504;48.336;14.472;2022-08-21T05:32:48;27.00;48.20
63371;DHT22;49504;48.336;14.472;2022-08-21T05:37:49;27.00;48.20
63371;DHT22;49504;48.336;14.472;2022-08-21T05:42:51;27.00;48.20
63371;DHT22;49504;48.336;14.472;2022-08-21T05:47:54;27.00;48.30
63371;DHT22;49504;48.336;14.472;2022-08-21T05:52:55;27.00;48.20
63371;DHT22;49504;48.336;14.472;2022-08-21T07:17:01;27.30;47.80
63371;DHT22;49504;48.336;14.472;2022-08-21T07:22:03;27.30;48.90
63371;DHT22;49504;48.336;14.472;2022-08-21T07:27:05;27.40;48.50
63371;DHT22;49504;48.336;14.472;2022-08-21T07:32:08;27.40;48.40
63371;DHT22;49504;48.336;14.472;2022-08-21T07:41:45;27.30;47.80
63371;DHT22;49504;48.336;14.472;2022-08-21T07:49:30;27.20;47.80
63371;DHT22;49504;48.336;14.472;2022-08-21T07:54:31;27.20;48.40
63371;DHT22;49504;48.336;14.472;2022-08-21T07:59:33;27.20;48.40
63371;DHT22;49504;48.336;14.472;2022-08-21T08:04:37;27.20;48.40
63371;DHT22;49504;48.336;14.472;2022-08-21T08:09:40;27.10;48.40
63371;DHT22;49504;48.336;14.472;2022-08-21T08:20:30;27.10;48.00
63371;DHT22;49504;48.336;14.472;2022-08-21T08:27:16;27.10;48.10
63371;DHT22;49504;48.336;14.472;2022-08-21T08:32:18;27.10;48.80
63371;DHT22;49504;48.336;14.472;2022-08-21T08:37:20;27.10;48.70
63371;DHT22;49504;48.336;14.472;2022-08-21T08:43:07;27.00;48.10
63371;DHT22;49504;48.336;14.472;2022-08-21T08:48:10;27.10;48.90
63371;DHT22;49504;48.336;14.472;2022-08-21T08:53:18;27.00;48.90
63371;DHT22;49504;48.336;14.472;2022-08-21T08:58:26;27.00;49.00
63371;DHT22;49504;48.336;14.472;2022-08-21T09:03:29;27.00;49.10
63371;DHT22;49504;48.336;14.472;2022-08-21T09:10:49;27.00;48.50
63371;DHT22;49504;48.336;14.472;2022-08-21T09:22:34;27.00;48.70
63371;DHT22;49504;48.336;14.472;2022-08-21T09:27:40;27.00;49.50
63371;DHT22;49504;48.336;14.472;2022-08-21T09:32:42;27.00;49.60
63371;DHT22;49504;48.336;14.472;2022-08-21T09:37:51;27.00;49.80
63371;DHT22;49504;48.336;14.472;2022-08-21T09:42:55;27.00;49.80
63371;DHT22;49504;48.336;14.472;2022-08-21T09:48:08;27.00;50.00
63371;DHT22;49504;48.336;14.472;2022-08-21T09:53:19;27.00;49.80
63371;DHT22;49504;48.336;14.472;2022-08-21T09:58:21;27.00;49.90
63371;DHT22;49504;48.336;14.472;2022-08-21T10:03:32;27.00;50.10
63371;DHT22;49504;48.336;14.472;2022-08-21T10:08:37;27.00;50.20
63371;DHT22;49504;48.336;14.472;2022-08-21T10:13:50;27.00;50.30
63371;DHT22;49504;48.336;14.472;2022-08-21T10:19:15;27.00;49.60
63371;DHT22;49504;48.336;14.472;2022-08-21T10:24:26;27.00;50.40
63371;DHT22;49504;48.336;14.472;2022-08-21T10:29:35;27.00;50.40
63371;DHT22;49504;48.336;14.472;2022-08-21T10:34:47;27.00;50.10
63371;DHT22;49504;48.336;14.472;2022-08-21T10:40:07;27.00;50.30
63371;DHT22;49504;48.336;14.472;2022-08-21T10:45:25;27.00;50.40
63371;DHT22;49504;48.336;14.472;2022-08-21T10:50:42;26.90;50.30
63371;DHT22;49504;48.336;14.472;2022-08-21T10:55:54;27.00;50.50
63371;DHT22;49504;48.336;14.472;2022-08-21T11:02:08;26.90;49.80
63371;DHT22;49504;48.336;14.472;2022-08-21T11:07:31;27.00;50.40
63371;DHT22;49504;48.336;14.472;2022-08-21T11:14:46;26.90;49.80
63371;DHT22;49504;48.336;14.472;2022-08-21T11:20:05;27.00;50.60
63371;DHT22;49504;48.336;14.472;2022-08-21T11:25:21;27.00;50.70
63371;DHT22;49504;48.336;14.472;2022-08-21T11:30:38;27.00;50.50
63371;DHT22;49504;48.336;14.472;2022-08-21T11:35:49;27.00;50.30
63371;DHT22;49504;48.336;14.472;2022-08-21T11:46:41;27.00;50.20
63371;DHT22;49504;48.336;14.472;2022-08-21T11:51:59;27.00;50.20
63371;DHT22;49504;48.336;14.472;2022-08-21T11:57:14;27.00;50.20
63371;DHT22;49504;48.336;14.472;2022-08-21T12:02:23;27.00;50.20
63371;DHT22;49504;48.336;14.472;2022-08-21T12:07:33;27.00;50.10
63371;DHT22;49504;48.336;14.472;2022-08-21T12:12:37;27.00;50.00
63371;DHT22;49504;48.336;14.472;2022-08-21T12:17:52;27.00;50.10
63371;DHT22;49504;48.336;14.472;2022-08-21T12:23:03;27.00;50.20
63371;DHT22;49504;48.336;14.472;2022-08-21T12:28:08;27.10;50.30
63371;DHT22;49504;48.336;14.472;2022-08-21T12:33:25;27.10;50.10
63371;DHT22;49504;48.336;14.472;2022-08-21T12:38:33;27.00;50.10
63371;DHT22;49504;48.336;14.472;2022-08-21T12:43:45;27.00;50.00
63371;DHT22;49504;48.336;14.472;2022-08-21T12:48:53;27.10;50.00
63371;DHT22;49504;48.336;14.472;2022-08-21T12:53:58;27.00;49.70
63371;DHT22;49504;48.336;14.472;2022-08-21T13:01:02;27.10;49.30
63371;DHT22;49504;48.336;14.472;2022-08-21T13:06:05;27.10;49.70
63371;DHT22;49504;48.336;14.472;2022-08-21T13:11:08;27.10;49.60
63371;DHT22;49504;48.336;14.472;2022-08-21T13:16:12;27.10;49.60
63371;DHT22;49504;48.336;14.472;2022-08-21T13:21:20;27.10;49.80
63371;DHT22;49504;48.336;14.472;2022-08-21T13:26:22;27.10;49.90
63371;DHT22;49504;48.336;14.472;2022-08-21T13:31:27;27.10;49.70
63371;DHT22;49504;48.336;14.472;2022-08-21T13:38:23;27.10;49.30
63371;DHT22;49504;48.336;14.472;2022-08-21T13:47:32;27.10;49.30
63371;DHT22;49504;48.336;14.472;2022-08-21T13:52:49;27.10;50.10
63371;DHT22;49504;48.336;14.472;2022-08-21T14:01:57;27.10;49.40
63371;DHT22;49504;48.336;14.472;2022-08-21T14:07:00;27.10;50.20
63371;DHT22;49504;48.336;14.472;2022-08-21T14:12:11;27.10;50.20
63371;DHT22;49504;48.336;14.472;2022-08-21T14:17:32;27.10;49.60
63371;DHT22;49504;48.336;14.472;2022-08-21T14:22:37;27.10;50.30
63371;DHT22;49504;48.336;14.472;2022-08-21T14:27:43;27.10;50.30
63371;DHT22;49504;48.336;14.472;2022-08-21T14:32:50;27.20;50.60
63371;DHT22;49504;48.336;14.472;2022-08-21T14:37:52;27.10;50.70
63371;DHT22;49504;48.336;14.472;2022-08-21T14:42:54;27.10;50.50
63371;DHT22;49504;48.336;14.472;2022-08-21T14:47:58;27.20;50.60
63371;DHT22;49504;48.336;14.472;2022-08-21T14:52:59;27.20;50.40
63371;DHT22;49504;48.336;14.472;2022-08-21T14:58:01;27.20;50.70
63371;DHT22;49504;48.336;14.472;2022-08-21T15:03:03;27.20;50.70
63371;DHT22;49504;48.336;14.472;2022-08-21T15:08:04;27.20;50.60
63371;DHT22;49504;48.336;14.472;2022-08-21T15:22:29;27.20;49.80
63371;DHT22;49504;48.336;14.472;2022-08-21T15:27:30;27.20;50.20
63371;DHT22;49504;48.336;14.472;2022-08-21T15:32:31;27.20;50.30
63371;DHT22;49504;48.336;14.472;2022-08-21T15:37:34;27.20;50.30
63371;DHT22;49504;48.336;14.472;2022-08-21T15:42:35;27.20;50.30
63371;DHT22;49504;48.336;14.472;2022-08-21T15:47:42;27.20;50.30
63371;DHT22;49504;48.336;14.472;2022-08-21T15:53:02;27.20;49.80
63371;DHT22;49504;48.336;14.472;2022-08-21T15:58:04;27.20;50.20
63371;DHT22;49504;48.336;14.472;2022-08-21T16:03:05;27.20;50.40
63371;DHT22;49504;48.336;14.472;2022-08-21T16:08:08;27.20;50.40
63371;DHT22;49504;48.336;14.472;2022-08-21T16:13:16;27.30;50.50
63371;DHT22;49504;48.336;14.472;2022-08-21T16:18:21;27.20;50.00
63371;DHT22;49504;48.336;14.472;2022-08-21T16:23:24;27.20;50.50
63371;DHT22;49504;48.336;14.472;2022-08-21T16:28:25;27.20;49.70
63371;DHT22;49504;48.336;14.472;2022-08-21T16:33:29;27.20;49.70
63371;DHT22;49504;48.336;14.472;2022-08-21T16:38:35;27.20;49.80
63371;DHT22;49504;48.336;14.472;2022-08-21T16:43:37;27.20;49.70
63371;DHT22;49504;48.336;14.472;2022-08-21T16:48:40;27.20;49.80
63371;DHT22;49504;48.336;14.472;2022-08-21T16:53:43;27.20;49.80
63371;DHT22;49504;48.336;14.472;2022-08-21T16:58:47;27.20;49.70
63371;DHT22;49504;48.336;14.472;2022-08-21T17:04:44;27.20;49.30
63371;DHT22;49504;48.336;14.472;2022-08-21T17:09:45;27.20;49.80
63371;DHT22;49504;48.336;14.472;2022-08-21T17:14:47;27.20;49.80
63371;DHT22;49504;48.336;14.472;2022-08-21T17:19:49;27.20;49.70
63371;DHT22;49504;48.336;14.472;2022-08-21T17:24:50;27.20;49.70
63371;DHT22;49504;48.336;14.472;2022-08-21T17:29:51;27.20;49.70
63371;DHT22;49504;48.336;14.472;2022-08-21T17:34:54;27.20;49.50
63371;DHT22;49504;48.336;14.472;2022-08-21T17:39:55;27.20;49.50
63371;DHT22;49504;48.336;14.472;2022-08-21T17:48:55;27.20;49.10
63371;DHT22;49504;48.336;14.472;2022-08-21T17:53:56;27.20;49.60
63371;DHT22;49504;48.336;14.472;2022-08-21T17:58:58;27.20;49.80
63371;DHT22;49504;48.336;14.472;2022-08-21T18:04:01;27.20;50.00
63371;DHT22;49504;48.336;14.472;2022-08-21T18:17:40;27.20;49.50
63371;DHT22;49504;48.336;14.472;2022-08-21T18:22:42;27.20;50.30
63371;DHT22;49504;48.336;14.472;2022-08-21T18:27:44;27.20;50.30
63371;DHT22;49504;48.336;14.472;2022-08-21T18:32:47;27.20;51.00
63371;DHT22;49504;48.336;14.472;2022-08-21T18:37:49;27.20;50.20
63371;DHT22;49504;48.336;14.472;2022-08-21T18:42:50;27.20;50.20
63371;DHT22;49504;48.336;14.472;2022-08-21T18:47:55;27.20;50.30
63371;DHT22;49504;48.336;14.472;2022-08-21T18:52:57;27.20;50.30
63371;DHT22;49504;48.336;14.472;2022-08-21T18:57:58;27.20;50.40
63371;DHT22;49504;48.336;14.472;2022-08-21T19:07:46;27.20;49.60
63371;DHT22;49504;48.336;14.472;2022-08-21T19:12:47;27.20;50.30
63371;DHT22;49504;48.336;14.472;2022-08-21T19:22:31;27.20;49.80
63371;DHT22;49504;48.336;14.472;2022-08-21T19:27:35;27.20;50.20
63371;DHT22;49504;48.336;14.472;2022-08-21T19:32:37;27.20;50.30
63371;DHT22;49504;48.336;14.472;2022-08-21T19:37:44;27.20;50.40
63371;DHT22;49504;48.336;14.472;2022-08-21T19:42:45;27.20;50.40
63371;DHT22;49504;48.336;14.472;2022-08-21T19:47:58;27.20;50.50
63371;DHT22;49504;48.336;14.472;2022-08-21T19:58:43;27.20;50.00
63371;DHT22;49504;48.336;14.472;2022-08-21T20:03:46;27.30;50.20
63371;DHT22;49504;48.336;14.472;2022-08-21T20:13:07;27.20;49.70
63371;DHT22;49504;48.336;14.472;2022-08-21T20:18:08;27.20;50.20
63371;DHT22;49504;48.336;14.472;2022-08-21T20:27:31;27.20;49.70
63371;DHT22;49504;48.336;14.472;2022-08-21T20:32:32;27.20;50.30
63371;DHT22;49504;48.336;14.472;2022-08-21T20:37:33;27.30;50.40
63371;DHT22;49504;48.336;14.472;2022-08-21T20:42:36;27.20;50.40
63371;DHT22;49504;48.336;14.472;2022-08-21T20:47:37;27.20;50.50
63371;DHT22;49504;48.336;14.472;2022-08-21T20:52:38;27.20;50.50
63371;DHT22;49504;48.336;14.472;2022-08-21T20:57:45;27.30;50.60
63371;DHT22;49504;48.336;14.472;2022-08-21T21:02:52;27.20;50.30
63371;DHT22;49504;48.336;14.472;2022-08-21T21:08:02;27.30;50.20
63371;DHT22;49504;48.336;14.472;2022-08-21T21:13:12;27.20;50.10
63371;DHT22;49504;48.336;14.472;2022-08-21T21:18:28;27.20;50.10
63371;DHT22;49504;48.336;14.472;2022-08-21T21:23:37;27.30;49.80
63371;DHT22;49504;48.336;14.472;2022-08-21T21:28:46;27.20;49.60
63371;DHT22;49504;48.336;14.472;2022-08-21T21:33:48;27.20;49.50
63371;DHT22;49504;48.336;14.472;2022-08-21T21:38:52;27.20;49.30
63371;DHT22;49504;48.336;14.472;2022-08-21T21:44:10;27.20;50.00
63371;DHT22;49504;48.336;14.472;2022-08-21T21:49:41;27.20;49.30
63371;DHT22;49504;48.336;14.472;2022-08-21T21:54:59;27.20;49.30
63371;DHT22;49504;48.336;14.472;2022-08-21T22:00:22;27.20;49.20
63371;DHT22;49504;48.336;14.472;2022-08-21T22:05:38;27.20;49.00
63371;DHT22;49504;48.336;14.472;2022-08-21T22:10:52;27.20;49.00
63371;DHT22;49504;48.336;14.472;2022-08-21T22:15:59;27.20;48.90
63371;DHT22;49504;48.336;14.472;2022-08-21T22:21:04;27.20;48.70
63371;DHT22;49504;48.336;14.472;2022-08-21T22:26:11;27.20;48.70
63371;DHT22;49504;48.336;14.472;2022-08-21T22:31:18;27.20;49.00
63371;DHT22;49504;48.336;14.472;2022-08-21T22:36:53;27.20;48.20
63371;DHT22;49504;48.336;14.472;2022-08-21T22:42:04;27.20;48.40
63371;DHT22;49504;48.336;14.472;2022-08-21T22:47:06;27.10;48.30
63371;DHT22;49504;48.336;14.472;2022-08-21T22:52:13;27.10;48.10
63371;DHT22;49504;48.336;14.472;2022-08-21T22:57:22;27.10;48.10
63371;DHT22;49504;48.336;14.472;2022-08-21T23:02:34;27.10;48.00
63371;DHT22;49504;48.336;14.472;2022-08-21T23:07:40;27.10;48.00
63371;DHT22;49504;48.336;14.472;2022-08-21T23:16:06;27.10;47.60
63371;DHT22;49504;48.336;14.472;2022-08-21T23:21:22;27.20;48.00
63371;DHT22;49504;48.336;14.472;2022-08-21T23:26:31;27.10;47.70
63371;DHT22;49504;48.336;14.472;2022-08-21T23:31:45;27.10;47.60
63371;DHT22;49504;48.336;14.472;2022-08-21T23:36:58;27.10;47.60
63371;DHT22;49504;48.336;14.472;2022-08-21T23:42:11;27.10;47.90
63371;DHT22;49504;48.336;14.472;2022-08-21T23:49:24;27.10;47.30
63371;DHT22;49504;48.336;14.472;2022-08-21T23:56:48;27.10;47.20
